Svitzer Sines — CSYI4 — position and weather

sailwx.info

Track history (hours):
 
Tides and Currents Weather Stations Pressure Air Temp Water Temp Dewpoint Dewpoint Depression Visibility Wind Speed Wind Dir Waves Ship Positions

Svitzer Sines

Last reported at 2016-May-03 17:34 UTC. Time now 2016-May-03 18:16 UTC.
Position N 38°42' W 009°10'.

Length 26 m; draft 4 m.

Type: Tug. MMSI: 263601890.

Date/timePositionNaut miles runAvg speedWind from/ knotsBaromVisibWave heightAir tempDewpointWater temp
2016-May-03 17:34N 38°42' W 009°10'3 3.3
2016-May-03 16:33N 38°44' W 009°06'1 1.3
2016-May-03 15:33N 38°43' W 009°07'2 2.3
2016-May-03 14:33N 38°42' W 009°10'0 0.0
2016-May-03 13:33N 38°42' W 009°10'2 1.8
2016-May-03 12:33N 38°43' W 009°07'1 1.2
2016-May-03 11:33N 38°42' W 009°09'1 0.7
2016-May-03 10:33N 38°42' W 009°10'0 0.0
2016-May-03 09:33N 38°42' W 009°10'2 2.1
2016-May-03 08:33N 38°41' W 009°12'1 0.9
2016-May-03 07:34N 38°41' W 009°13'2 2.3
2016-May-03 06:33N 38°42' W 009°10'0 0.4
2016-May-03 05:33N 38°42' W 009°10'0 0.0
2016-May-03 04:33N 38°42' W 009°10'0 0.0
2016-May-03 03:34N 38°42' W 009°10'0 0.0
2016-May-03 02:33N 38°42' W 009°10'0 0.0
2016-May-03 01:33N 38°42' W 009°10'0 0.0
2016-May-03 00:33N 38°42' W 009°10'0 0.0
2016-May-02 23:33N 38°42' W 009°10'0 0.0
2016-May-02 22:33N 38°42' W 009°10'0 0.0
2016-May-02 21:34N 38°42' W 009°10'0 0.0
2016-May-02 20:33N 38°42' W 009°10'0 0.0
2016-May-02 19:33N 38°42' W 009°10'0 0.0
2016-May-02 18:33N 38°42' W 009°10'0 0.0
2016-May-02 17:33N 38°42' W 009°10'0 0.0
2016-May-02 16:33N 38°42' W 009°10'0 0.0
2016-May-02 15:33N 38°42' W 009°10'0 0.0
2016-May-02 14:33N 38°42' W 009°10'0 0.0
2016-May-02 13:33N 38°42' W 009°10'0 0.0
2016-May-02 12:33N 38°42' W 009°10'3 2.7
2016-May-02 11:33N 38°41' W 009°13'1 0.7
2016-May-02 10:33N 38°41' W 009°14'3 3.4
2016-May-02 09:34N 38°42' W 009°10'0 0.0
2016-May-02 08:33N 38°42' W 009°10'0 0.0
2016-May-02 07:33N 38°42' W 009°10'0 0.0
2016-May-02 06:33N 38°42' W 009°10'0 0.0
2016-May-02 05:33N 38°42' W 009°10'0 0.0
2016-May-02 04:33N 38°42' W 009°10'0 0.0
2016-May-02 03:33N 38°42' W 009°10'0 0.0
2016-May-02 02:34N 38°42' W 009°10'0 0.0
2016-May-02 01:33N 38°42' W 009°10'0 0.0
2016-May-02 00:33N 38°42' W 009°10'0 0.0
2016-May-01 23:33N 38°42' W 009°10'0 0.0
2016-May-01 22:33N 38°42' W 009°10'0 0.0
2016-May-01 21:33N 38°42' W 009°10'0 0.0
2016-May-01 20:32N 38°42' W 009°10'0 0.0
2016-May-01 19:33N 38°42' W 009°10'0 0.0
2016-May-01 18:33N 38°42' W 009°10'0 0.0
2016-May-01 17:33N 38°42' W 009°10'0 0.0
2016-May-01 16:33N 38°42' W 009°10'0 0.0
2016-May-01 15:33N 38°42' W 009°10'0 0.0
2016-May-01 14:33N 38°42' W 009°10'0 0.0
2016-May-01 13:34N 38°42' W 009°10'0 0.0
2016-May-01 12:33N 38°42' W 009°10'0 0.0
2016-May-01 11:33N 38°42' W 009°10'0 0.0
2016-May-01 10:33N 38°42' W 009°10'0 0.0
2016-May-01 09:33N 38°42' W 009°10'0 0.0
2016-May-01 08:33N 38°42' W 009°10'0 0.0
2016-May-01 07:33N 38°42' W 009°10'0 0.0
2016-May-01 06:34N 38°42' W 009°10'0 0.0
2016-May-01 05:33N 38°42' W 009°10'0 0.0
2016-May-01 04:33N 38°42' W 009°10'0 0.0
2016-May-01 03:34N 38°42' W 009°10'0 0.0
2016-May-01 02:33N 38°42' W 009°10'0 0.0
2016-May-01 01:34N 38°42' W 009°10'0 0.0
2016-May-01 00:33N 38°42' W 009°10'0 0.0
2016-Apr-30 23:33N 38°42' W 009°10'0 0.0
2016-Apr-30 22:34N 38°42' W 009°10'0 0.0
2016-Apr-30 21:33N 38°42' W 009°10'0 0.0
2016-Apr-30 20:33N 38°42' W 009°10'0 0.0
2016-Apr-30 19:34N 38°42' W 009°10'0 0.0
2016-Apr-30 18:34N 38°42' W 009°10'0 0.0
2016-Apr-30 17:34N 38°42' W 009°10'0 0.0
2016-Apr-30 16:34N 38°42' W 009°10'0 0.0
2016-Apr-30 15:34N 38°42' W 009°10'0 0.0
2016-Apr-30 14:33N 38°42' W 009°10'0 0.0
2016-Apr-30 13:33N 38°42' W 009°10'0 0.0
2016-Apr-30 12:33N 38°42' W 009°10'0 0.0
2016-Apr-30 11:34N 38°42' W 009°10'0 0.0
2016-Apr-30 10:33N 38°42' W 009°10'3 2.9
2016-Apr-30 09:34N 38°41' W 009°13'8 7.8
2016-Apr-30 08:33N 38°36' W 009°21'9 9.2
2016-Apr-30 07:34N 38°27' W 009°21'9 8.8
2016-Apr-30 06:33N 38°18' W 009°22'9 8.8
2016-Apr-30 05:33N 38°09' W 009°22'9 8.8
2016-Apr-30 04:33N 38°00' W 009°22'9 8.9
2016-Apr-30 03:33N 37°52' W 009°21'9 8.8
2016-Apr-30 02:33N 37°43' W 009°22'38 9.1
2016-Apr-29 22:22N 37°05' W 009°21'40 6.5
2016-Apr-29 16:14N 37°07' W 008°31'0 0.1
2016-Apr-29 09:12N 37°08' W 008°32'0 0.0
2016-Apr-29 08:10N 37°08' W 008°32'0 0.0
2016-Apr-29 07:29N 37°08' W 008°32'0 0.1
2016-Apr-29 06:32N 37°08' W 008°32'0 0.1
2016-Apr-29 04:34N 37°08' W 008°32'0 0.0
2016-Apr-29 01:33N 37°08' W 008°32'38 5.5
2016-Apr-28 18:33N 37°30' W 009°11'9 9.2
2016-Apr-28 17:33N 37°39' W 009°12'9 8.9
2016-Apr-28 16:34N 37°48' W 009°13'9 9.0
2016-Apr-28 15:33N 37°57' W 009°15'9 8.9
2016-Apr-28 14:33N 38°06' W 009°16'9 9.2
2016-Apr-28 13:33N 38°15' W 009°17'9 9.2
2016-Apr-28 12:33N 38°24' W 009°19'9 9.2
2016-Apr-28 11:33N 38°33' W 009°20'9 8.5
2016-Apr-28 10:33N 38°41' W 009°15'5 4.7
2016-Apr-28 09:33N 38°42' W 009°10'2 1.7
2016-Apr-28 08:34N 38°41' W 009°11'1 0.8
2016-Apr-28 07:34N 38°41' W 009°12'2 2.2
2016-Apr-28 06:34N 38°42' W 009°10'0 0.0
2016-Apr-28 05:33N 38°42' W 009°10'0 0.0
2016-Apr-28 04:34N 38°42' W 009°10'0 0.0
2016-Apr-28 03:34N 38°42' W 009°10'0 0.0
2016-Apr-28 02:34N 38°42' W 009°10'0 0.0
2016-Apr-28 01:33N 38°42' W 009°10'0 0.0
2016-Apr-28 00:34N 38°42' W 009°10'0 0.0
2016-Apr-27 23:33N 38°42' W 009°10'0 0.0
2016-Apr-27 22:34N 38°42' W 009°10'0 0.0
2016-Apr-27 21:33N 38°42' W 009°10'0 0.0
2016-Apr-27 20:33N 38°42' W 009°10'0 0.0
2016-Apr-27 19:33N 38°42' W 009°10'0 0.0
2016-Apr-27 18:33N 38°42' W 009°10'2 1.9
2016-Apr-27 17:33N 38°40' W 009°09'1 0.8
2016-Apr-27 16:33N 38°41' W 009°08'2 1.8
2016-Apr-27 15:33N 38°42' W 009°10'1 1.4
2016-Apr-27 14:33N 38°41' W 009°08'1 1.4
2016-Apr-27 13:33N 38°42' W 009°10'0 0.1
2016-Apr-27 12:33N 38°42' W 009°10'0 0.3
2016-Apr-27 11:33N 38°42' W 009°09'2 1.8
2016-Apr-27 10:33N 38°40' W 009°09'2 2.2
2016-Apr-27 09:33N 38°42' W 009°10'0 0.0
2016-Apr-27 08:33N 38°42' W 009°10'0 0.0
2016-Apr-27 07:33N 38°42' W 009°10'0 0.0
2016-Apr-27 06:33N 38°42' W 009°10'0 0.0
2016-Apr-27 05:33N 38°42' W 009°10'0 0.0
2016-Apr-27 04:33N 38°42' W 009°10'0 0.0
2016-Apr-27 03:33N 38°42' W 009°10'0 0.0
2016-Apr-27 02:33N 38°42' W 009°10'0 0.0
2016-Apr-27 01:33N 38°42' W 009°10'0 0.0
2016-Apr-27 00:33N 38°42' W 009°10'0 0.0
2016-Apr-26 23:33N 38°42' W 009°10'0 0.0
2016-Apr-26 22:33N 38°42' W 009°10'0 0.0
2016-Apr-26 21:33N 38°42' W 009°10'0 0.0
2016-Apr-26 20:33N 38°42' W 009°10'0 0.0
2016-Apr-26 19:33N 38°42' W 009°10'0 0.0
2016-Apr-26 18:33N 38°42' W 009°10'0 0.0
2016-Apr-26 17:33N 38°42' W 009°10'0 0.0
2016-Apr-26 16:33N 38°42' W 009°10'0 0.0
2016-Apr-26 15:33N 38°42' W 009°10'0 0.0
2016-Apr-26 14:32N 38°42' W 009°10'0 0.0
2016-Apr-26 13:32N 38°42' W 009°10'0 0.0
2016-Apr-26 12:33N 38°42' W 009°10'0 0.0
2016-Apr-26 11:33N 38°42' W 009°10'0 0.0
2016-Apr-26 10:33N 38°42' W 009°10'0 0.0
2016-Apr-26 09:33N 38°42' W 009°10'0 0.0
2016-Apr-26 08:33N 38°42' W 009°10'0 0.0
2016-Apr-26 07:33N 38°42' W 009°10'0 0.0
2016-Apr-26 06:33N 38°42' W 009°10'0 0.0
2016-Apr-26 05:33N 38°42' W 009°10'0 0.0
2016-Apr-26 04:33N 38°42' W 009°10'0 0.0
2016-Apr-26 03:33N 38°42' W 009°10'0 0.0
2016-Apr-26 02:33N 38°42' W 009°10'0 0.0
2016-Apr-26 01:33N 38°42' W 009°10'0 0.0
2016-Apr-26 00:33N 38°42' W 009°10'0 0.0
2016-Apr-25 23:32N 38°42' W 009°10'0 0.0
2016-Apr-25 22:33N 38°42' W 009°10'0 0.0
2016-Apr-25 21:33N 38°42' W 009°10'0 0.0
2016-Apr-25 20:33N 38°42' W 009°10'0 0.0
2016-Apr-25 19:33N 38°42' W 009°10'0 0.0
2016-Apr-25 18:33N 38°42' W 009°10'0 0.0
2016-Apr-25 17:33N 38°42' W 009°10'0 0.0
2016-Apr-25 16:33N 38°42' W 009°10'0 0.0
2016-Apr-25 15:33N 38°42' W 009°10'2 2.2
2016-Apr-25 14:33N 38°41' W 009°12'2 2.2
2016-Apr-25 13:33N 38°42' W 009°10'0 0.0
2016-Apr-25 12:33N 38°42' W 009°10'0 0.0
2016-Apr-25 11:33N 38°42' W 009°10'0 0.0
2016-Apr-25 10:33N 38°42' W 009°10'0 0.0
2016-Apr-25 09:33N 38°42' W 009°10'0 0.0
2016-Apr-25 08:33N 38°42' W 009°10'0 0.0
2016-Apr-25 07:33N 38°42' W 009°10'0 0.0
2016-Apr-25 06:33N 38°42' W 009°10'0 0.0
2016-Apr-25 05:33N 38°42' W 009°10'0 0.0
2016-Apr-25 04:33N 38°42' W 009°10'0 0.0
2016-Apr-25 03:33N 38°42' W 009°10'0 0.0
2016-Apr-25 02:33N 38°42' W 009°10'0 0.0
2016-Apr-25 01:33N 38°42' W 009°10'0 0.0
2016-Apr-25 00:33N 38°42' W 009°10'0 0.0
2016-Apr-24 23:33N 38°42' W 009°10'0 0.0
2016-Apr-24 22:33N 38°42' W 009°10'0 0.0
2016-Apr-24 21:33N 38°42' W 009°10'0 0.0
2016-Apr-24 20:33N 38°42' W 009°10'0 0.0
2016-Apr-24 19:33N 38°42' W 009°10'0 0.0
2016-Apr-24 18:33N 38°42' W 009°10'0 0.0
2016-Apr-24 17:33N 38°42' W 009°10'0 0.0
2016-Apr-24 16:33N 38°42' W 009°10'0 0.0
2016-Apr-24 15:33N 38°42' W 009°10'0 0.0
2016-Apr-24 14:33N 38°42' W 009°10'5 4.8
2016-Apr-24 13:33N 38°41' W 009°04'5 4.8
2016-Apr-24 12:33N 38°42' W 009°10'0 0.0
2016-Apr-24 11:33N 38°42' W 009°10'0 0.0
2016-Apr-24 10:33N 38°42' W 009°10'0 0.0
2016-Apr-24 09:33N 38°42' W 009°10'2 1.7
2016-Apr-24 08:33N 38°43' W 009°08'1 0.6
2016-Apr-24 07:33N 38°43' W 009°07'2 2.3
2016-Apr-24 06:33N 38°42' W 009°10'0 0.0
2016-Apr-24 05:33N 38°42' W 009°10'0 0.0
2016-Apr-24 04:33N 38°42' W 009°10'0 0.0
2016-Apr-24 03:33N 38°42' W 009°10'0 0.0
2016-Apr-24 02:33N 38°42' W 009°10'0 0.0
2016-Apr-24 01:33N 38°42' W 009°10'0 0.0
2016-Apr-24 00:33N 38°42' W 009°10'0 0.0
2016-Apr-23 23:33N 38°42' W 009°10'0 0.0
2016-Apr-23 22:33N 38°42' W 009°10'0 0.0
2016-Apr-23 21:33N 38°42' W 009°10'0 0.0
2016-Apr-23 20:33N 38°42' W 009°10'0 0.0
2016-Apr-23 19:33N 38°42' W 009°10'0 0.0
2016-Apr-23 18:33N 38°42' W 009°10'  
Track history (hours):
 
Tides and Currents Weather Stations Pressure Air Temp Water Temp Dewpoint Dewpoint Depression Visibility Wind Speed Wind Dir Waves Ship Positions

Svitzer Sines

Last reported at 2016-May-03 17:34 UTC. Time now 2016-May-03 18:16 UTC.
Position N 38°42' W 009°10'.

Length 26 m; draft 4 m.

Type: Tug. MMSI: 263601890.

Date/timePositionNaut miles runAvg speedWind from/ knotsBaromVisibWave heightAir tempDewpointWater temp
2016-May-03 17:34N 38°42' W 009°10'3 3.3
2016-May-03 16:33N 38°44' W 009°06'1 1.3
2016-May-03 15:33N 38°43' W 009°07'2 2.3
2016-May-03 14:33N 38°42' W 009°10'0 0.0
2016-May-03 13:33N 38°42' W 009°10'2 1.8
2016-May-03 12:33N 38°43' W 009°07'1 1.2
2016-May-03 11:33N 38°42' W 009°09'1 0.7
2016-May-03 10:33N 38°42' W 009°10'0 0.0
2016-May-03 09:33N 38°42' W 009°10'2 2.1
2016-May-03 08:33N 38°41' W 009°12'1 0.9
2016-May-03 07:34N 38°41' W 009°13'2 2.3
2016-May-03 06:33N 38°42' W 009°10'0 0.4
2016-May-03 05:33N 38°42' W 009°10'0 0.0
2016-May-03 04:33N 38°42' W 009°10'0 0.0
2016-May-03 03:34N 38°42' W 009°10'0 0.0
2016-May-03 02:33N 38°42' W 009°10'0 0.0
2016-May-03 01:33N 38°42' W 009°10'0 0.0
2016-May-03 00:33N 38°42' W 009°10'0 0.0
2016-May-02 23:33N 38°42' W 009°10'0 0.0
2016-May-02 22:33N 38°42' W 009°10'0 0.0
2016-May-02 21:34N 38°42' W 009°10'0 0.0
2016-May-02 20:33N 38°42' W 009°10'0 0.0
2016-May-02 19:33N 38°42' W 009°10'0 0.0
2016-May-02 18:33N 38°42' W 009°10'0 0.0
2016-May-02 17:33N 38°42' W 009°10'0 0.0
2016-May-02 16:33N 38°42' W 009°10'0 0.0
2016-May-02 15:33N 38°42' W 009°10'0 0.0
2016-May-02 14:33N 38°42' W 009°10'0 0.0
2016-May-02 13:33N 38°42' W 009°10'0 0.0
2016-May-02 12:33N 38°42' W 009°10'3 2.7
2016-May-02 11:33N 38°41' W 009°13'1 0.7
2016-May-02 10:33N 38°41' W 009°14'3 3.4
2016-May-02 09:34N 38°42' W 009°10'0 0.0
2016-May-02 08:33N 38°42' W 009°10'0 0.0
2016-May-02 07:33N 38°42' W 009°10'0 0.0
2016-May-02 06:33N 38°42' W 009°10'0 0.0
2016-May-02 05:33N 38°42' W 009°10'0 0.0
2016-May-02 04:33N 38°42' W 009°10'0 0.0
2016-May-02 03:33N 38°42' W 009°10'0 0.0
2016-May-02 02:34N 38°42' W 009°10'0 0.0
2016-May-02 01:33N 38°42' W 009°10'0 0.0
2016-May-02 00:33N 38°42' W 009°10'0 0.0
2016-May-01 23:33N 38°42' W 009°10'0 0.0
2016-May-01 22:33N 38°42' W 009°10'0 0.0
2016-May-01 21:33N 38°42' W 009°10'0 0.0
2016-May-01 20:32N 38°42' W 009°10'0 0.0
2016-May-01 19:33N 38°42' W 009°10'0 0.0
2016-May-01 18:33N 38°42' W 009°10'0 0.0
2016-May-01 17:33N 38°42' W 009°10'0 0.0
2016-May-01 16:33N 38°42' W 009°10'0 0.0
2016-May-01 15:33N 38°42' W 009°10'0 0.0
2016-May-01 14:33N 38°42' W 009°10'0 0.0
2016-May-01 13:34N 38°42' W 009°10'0 0.0
2016-May-01 12:33N 38°42' W 009°10'0 0.0
2016-May-01 11:33N 38°42' W 009°10'0 0.0
2016-May-01 10:33N 38°42' W 009°10'0 0.0
2016-May-01 09:33N 38°42' W 009°10'0 0.0
2016-May-01 08:33N 38°42' W 009°10'0 0.0
2016-May-01 07:33N 38°42' W 009°10'0 0.0
2016-May-01 06:34N 38°42' W 009°10'0 0.0
2016-May-01 05:33N 38°42' W 009°10'0 0.0
2016-May-01 04:33N 38°42' W 009°10'0 0.0
2016-May-01 03:34N 38°42' W 009°10'0 0.0
2016-May-01 02:33N 38°42' W 009°10'0 0.0
2016-May-01 01:34N 38°42' W 009°10'0 0.0
2016-May-01 00:33N 38°42' W 009°10'0 0.0
2016-Apr-30 23:33N 38°42' W 009°10'0 0.0
2016-Apr-30 22:34N 38°42' W 009°10'0 0.0
2016-Apr-30 21:33N 38°42' W 009°10'0 0.0
2016-Apr-30 20:33N 38°42' W 009°10'0 0.0
2016-Apr-30 19:34N 38°42' W 009°10'0 0.0
2016-Apr-30 18:34N 38°42' W 009°10'0 0.0
2016-Apr-30 17:34N 38°42' W 009°10'0 0.0
2016-Apr-30 16:34N 38°42' W 009°10'0 0.0
2016-Apr-30 15:34N 38°42' W 009°10'0 0.0
2016-Apr-30 14:33N 38°42' W 009°10'0 0.0
2016-Apr-30 13:33N 38°42' W 009°10'0 0.0
2016-Apr-30 12:33N 38°42' W 009°10'0 0.0
2016-Apr-30 11:34N 38°42' W 009°10'0 0.0
2016-Apr-30 10:33N 38°42' W 009°10'3 2.9
2016-Apr-30 09:34N 38°41' W 009°13'8 7.8
2016-Apr-30 08:33N 38°36' W 009°21'9 9.2
2016-Apr-30 07:34N 38°27' W 009°21'9 8.8
2016-Apr-30 06:33N 38°18' W 009°22'9 8.8
2016-Apr-30 05:33N 38°09' W 009°22'9 8.8
2016-Apr-30 04:33N 38°00' W 009°22'9 8.9
2016-Apr-30 03:33N 37°52' W 009°21'9 8.8
2016-Apr-30 02:33N 37°43' W 009°22'38 9.1
2016-Apr-29 22:22N 37°05' W 009°21'40 6.5
2016-Apr-29 16:14N 37°07' W 008°31'0 0.1
2016-Apr-29 09:12N 37°08' W 008°32'0 0.0
2016-Apr-29 08:10N 37°08' W 008°32'0 0.0
2016-Apr-29 07:29N 37°08' W 008°32'0 0.1
2016-Apr-29 06:32N 37°08' W 008°32'0 0.1
2016-Apr-29 04:34N 37°08' W 008°32'0 0.0
2016-Apr-29 01:33N 37°08' W 008°32'38 5.5
2016-Apr-28 18:33N 37°30' W 009°11'9 9.2
2016-Apr-28 17:33N 37°39' W 009°12'9 8.9
2016-Apr-28 16:34N 37°48' W 009°13'9 9.0
2016-Apr-28 15:33N 37°57' W 009°15'9 8.9
2016-Apr-28 14:33N 38°06' W 009°16'9 9.2
2016-Apr-28 13:33N 38°15' W 009°17'9 9.2
2016-Apr-28 12:33N 38°24' W 009°19'9 9.2
2016-Apr-28 11:33N 38°33' W 009°20'9 8.5
2016-Apr-28 10:33N 38°41' W 009°15'5 4.7
2016-Apr-28 09:33N 38°42' W 009°10'2 1.7
2016-Apr-28 08:34N 38°41' W 009°11'1 0.8
2016-Apr-28 07:34N 38°41' W 009°12'2 2.2
2016-Apr-28 06:34N 38°42' W 009°10'0 0.0
2016-Apr-28 05:33N 38°42' W 009°10'0 0.0
2016-Apr-28 04:34N 38°42' W 009°10'0 0.0
2016-Apr-28 03:34N 38°42' W 009°10'0 0.0
2016-Apr-28 02:34N 38°42' W 009°10'0 0.0
2016-Apr-28 01:33N 38°42' W 009°10'0 0.0
2016-Apr-28 00:34N 38°42' W 009°10'0 0.0
2016-Apr-27 23:33N 38°42' W 009°10'0 0.0
2016-Apr-27 22:34N 38°42' W 009°10'0 0.0
2016-Apr-27 21:33N 38°42' W 009°10'0 0.0
2016-Apr-27 20:33N 38°42' W 009°10'0 0.0
2016-Apr-27 19:33N 38°42' W 009°10'0 0.0
2016-Apr-27 18:33N 38°42' W 009°10'2 1.9
2016-Apr-27 17:33N 38°40' W 009°09'1 0.8
2016-Apr-27 16:33N 38°41' W 009°08'2 1.8
2016-Apr-27 15:33N 38°42' W 009°10'1 1.4
2016-Apr-27 14:33N 38°41' W 009°08'1 1.4
2016-Apr-27 13:33N 38°42' W 009°10'0 0.1
2016-Apr-27 12:33N 38°42' W 009°10'0 0.3
2016-Apr-27 11:33N 38°42' W 009°09'2 1.8
2016-Apr-27 10:33N 38°40' W 009°09'2 2.2
2016-Apr-27 09:33N 38°42' W 009°10'0 0.0
2016-Apr-27 08:33N 38°42' W 009°10'0 0.0
2016-Apr-27 07:33N 38°42' W 009°10'0 0.0
2016-Apr-27 06:33N 38°42' W 009°10'0 0.0
2016-Apr-27 05:33N 38°42' W 009°10'0 0.0
2016-Apr-27 04:33N 38°42' W 009°10'0 0.0
2016-Apr-27 03:33N 38°42' W 009°10'0 0.0
2016-Apr-27 02:33N 38°42' W 009°10'0 0.0
2016-Apr-27 01:33N 38°42' W 009°10'0 0.0
2016-Apr-27 00:33N 38°42' W 009°10'0 0.0
2016-Apr-26 23:33N 38°42' W 009°10'0 0.0
2016-Apr-26 22:33N 38°42' W 009°10'0 0.0
2016-Apr-26 21:33N 38°42' W 009°10'0 0.0
2016-Apr-26 20:33N 38°42' W 009°10'0 0.0
2016-Apr-26 19:33N 38°42' W 009°10'0 0.0
2016-Apr-26 18:33N 38°42' W 009°10'0 0.0
2016-Apr-26 17:33N 38°42' W 009°10'0 0.0
2016-Apr-26 16:33N 38°42' W 009°10'0 0.0
2016-Apr-26 15:33N 38°42' W 009°10'0 0.0
2016-Apr-26 14:32N 38°42' W 009°10'0 0.0
2016-Apr-26 13:32N 38°42' W 009°10'0 0.0
2016-Apr-26 12:33N 38°42' W 009°10'0 0.0
2016-Apr-26 11:33N 38°42' W 009°10'0 0.0
2016-Apr-26 10:33N 38°42' W 009°10'0 0.0
2016-Apr-26 09:33N 38°42' W 009°10'0 0.0
2016-Apr-26 08:33N 38°42' W 009°10'0 0.0
2016-Apr-26 07:33N 38°42' W 009°10'0 0.0
2016-Apr-26 06:33N 38°42' W 009°10'0 0.0
2016-Apr-26 05:33N 38°42' W 009°10'0 0.0
2016-Apr-26 04:33N 38°42' W 009°10'0 0.0
2016-Apr-26 03:33N 38°42' W 009°10'0 0.0
2016-Apr-26 02:33N 38°42' W 009°10'0 0.0
2016-Apr-26 01:33N 38°42' W 009°10'0 0.0
2016-Apr-26 00:33N 38°42' W 009°10'0 0.0
2016-Apr-25 23:32N 38°42' W 009°10'0 0.0
2016-Apr-25 22:33N 38°42' W 009°10'0 0.0
2016-Apr-25 21:33N 38°42' W 009°10'0 0.0
2016-Apr-25 20:33N 38°42' W 009°10'0 0.0
2016-Apr-25 19:33N 38°42' W 009°10'0 0.0
2016-Apr-25 18:33N 38°42' W 009°10'0 0.0
2016-Apr-25 17:33N 38°42' W 009°10'0 0.0
2016-Apr-25 16:33N 38°42' W 009°10'0 0.0
2016-Apr-25 15:33N 38°42' W 009°10'2 2.2
2016-Apr-25 14:33N 38°41' W 009°12'2 2.2
2016-Apr-25 13:33N 38°42' W 009°10'0 0.0
2016-Apr-25 12:33N 38°42' W 009°10'0 0.0
2016-Apr-25 11:33N 38°42' W 009°10'0 0.0
2016-Apr-25 10:33N 38°42' W 009°10'0 0.0
2016-Apr-25 09:33N 38°42' W 009°10'0 0.0
2016-Apr-25 08:33N 38°42' W 009°10'0 0.0
2016-Apr-25 07:33N 38°42' W 009°10'0 0.0
2016-Apr-25 06:33N 38°42' W 009°10'0 0.0
2016-Apr-25 05:33N 38°42' W 009°10'0 0.0
2016-Apr-25 04:33N 38°42' W 009°10'0 0.0
2016-Apr-25 03:33N 38°42' W 009°10'0 0.0
2016-Apr-25 02:33N 38°42' W 009°10'0 0.0
2016-Apr-25 01:33N 38°42' W 009°10'0 0.0
2016-Apr-25 00:33N 38°42' W 009°10'0 0.0
2016-Apr-24 23:33N 38°42' W 009°10'0 0.0
2016-Apr-24 22:33N 38°42' W 009°10'0 0.0
2016-Apr-24 21:33N 38°42' W 009°10'0 0.0
2016-Apr-24 20:33N 38°42' W 009°10'0 0.0
2016-Apr-24 19:33N 38°42' W 009°10'0 0.0
2016-Apr-24 18:33N 38°42' W 009°10'0 0.0
2016-Apr-24 17:33N 38°42' W 009°10'0 0.0
2016-Apr-24 16:33N 38°42' W 009°10'0 0.0
2016-Apr-24 15:33N 38°42' W 009°10'0 0.0
2016-Apr-24 14:33N 38°42' W 009°10'5 4.8
2016-Apr-24 13:33N 38°41' W 009°04'5 4.8
2016-Apr-24 12:33N 38°42' W 009°10'0 0.0
2016-Apr-24 11:33N 38°42' W 009°10'0 0.0
2016-Apr-24 10:33N 38°42' W 009°10'0 0.0
2016-Apr-24 09:33N 38°42' W 009°10'2 1.7
2016-Apr-24 08:33N 38°43' W 009°08'1 0.6
2016-Apr-24 07:33N 38°43' W 009°07'2 2.3
2016-Apr-24 06:33N 38°42' W 009°10'0 0.0
2016-Apr-24 05:33N 38°42' W 009°10'0 0.0
2016-Apr-24 04:33N 38°42' W 009°10'0 0.0
2016-Apr-24 03:33N 38°42' W 009°10'0 0.0
2016-Apr-24 02:33N 38°42' W 009°10'0 0.0
2016-Apr-24 01:33N 38°42' W 009°10'0 0.0
2016-Apr-24 00:33N 38°42' W 009°10'0 0.0
2016-Apr-23 23:33N 38°42' W 009°10'0 0.0
2016-Apr-23 22:33N 38°42' W 009°10'0 0.0
2016-Apr-23 21:33N 38°42' W 009°10'0 0.0
2016-Apr-23 20:33N 38°42' W 009°10'0 0.0
2016-Apr-23 19:33N 38°42' W 009°10'0 0.0
2016-Apr-23 18:33N 38°42' W 009°10'  

Dump ship's entire track history